Time;durP1;ratioP1;P1;durP2;ratioP2;P2;SDS_P1;SDS_P2;PMS_P1;PMS_P2;Temp;Humidity;BMP_temperature;BMP_pressure;BME280_temperature;BME280_humidity;BME280_pressure;Samples;Min_cycle;Max_cycle;Signal;HPM_P1;HPM_P2
2022/02/07 00:00:46;;;;;;;61.47;30.55;;;;;;;-145.63;100.00;61273.97;4985413;28;20058;-58
2022/02/07 00:03:31;;;;;;;60.28;31.10;;;;;;;-145.63;100.00;61273.97;4985419;28;20095;-58
2022/02/07 00:05:57;;;;;;;60.42;31.90;;;;;;;-145.63;100.00;61273.97;4985160;28;20030;-59
2022/02/07 00:08:22;;;;;;;58.85;29.75;;;;;;;-145.63;100.00;61273.97;4985104;28;20031;-58
2022/02/07 00:10:48;;;;;;;60.40;31.70;;;;;;;-145.63;100.00;61273.97;4985199;28;20069;-59
2022/02/07 00:13:13;;;;;;;58.70;31.10;;;;;;;-145.63;100.00;61273.97;4984335;28;20053;-59
2022/02/07 00:15:39;;;;;;;58.88;29.95;;;;;;;-145.63;100.00;61273.97;4982870;28;20027;-59
2022/02/07 00:18:06;;;;;;;63.60;31.38;;;;;;;-145.63;100.00;61273.97;4982172;28;20038;-59
2022/02/07 00:20:32;;;;;;;62.03;31.23;;;;;;;-145.63;100.00;61273.97;4983590;28;20029;-58
2022/02/07 00:22:58;;;;;;;60.25;30.13;;;;;;;-145.63;100.00;61273.97;4985123;28;20027;-58
2022/02/07 00:25:23;;;;;;;63.13;31.95;;;;;;;-145.63;100.00;61273.97;4983941;28;20029;-59
2022/02/07 00:27:49;;;;;;;61.35;31.63;;;;;;;-145.63;100.00;61273.97;4984839;28;20058;-58
2022/02/07 00:30:17;;;;;;;62.28;30.92;;;;;;;-145.63;100.00;61273.97;4984709;28;20070;-62
2022/02/07 00:32:44;;;;;;;64.72;30.67;;;;;;;-145.63;100.00;61273.97;4983907;28;20035;-59
2022/02/07 00:35:14;;;;;;;65.35;30.88;;;;;;;-145.63;100.00;61273.97;4983503;28;20072;-58
2022/02/07 00:37:42;;;;;;;60.30;30.38;;;;;;;-145.63;100.00;61273.97;4984857;28;20085;-59
2022/02/07 00:42:53;;;;;;;55.55;30.50;;;;;;;-145.63;100.00;61273.97;4983644;28;20046;-58
2022/02/07 00:45:38;;;;;;;64.25;32.17;;;;;;;-145.63;100.00;61273.97;4973288;28;20042;-58
2022/02/07 00:48:05;;;;;;;62.90;30.98;;;;;;;-145.63;100.00;61273.97;4983917;28;20052;-58
2022/02/07 00:50:33;;;;;;;62.78;31.60;;;;;;;-145.63;100.00;61273.97;4999657;28;20027;-59
2022/02/07 00:52:59;;;;;;;66.68;31.33;;;;;;;-145.63;100.00;61273.97;4984102;28;20058;-59
2022/02/07 00:55:25;;;;;;;63.42;28.23;;;;;;;-145.63;100.00;61273.97;4984415;28;20027;-60
2022/02/07 00:57:50;;;;;;;59.20;30.05;;;;;;;-145.63;100.00;61273.97;4984473;28;20103;-60
2022/02/07 01:00:17;;;;;;;57.05;29.88;;;;;;;-145.63;100.00;61273.97;4984204;28;20081;-58
2022/02/07 01:02:46;;;;;;;62.65;31.00;;;;;;;-145.63;100.00;61273.97;4984305;28;20138;-59
2022/02/07 01:05:13;;;;;;;61.40;30.42;;;;;;;-145.63;100.00;61273.97;4984099;28;20296;-58
2022/02/07 01:07:42;;;;;;;62.47;30.05;;;;;;;-145.63;100.00;61273.97;4967348;28;20038;-59
2022/02/07 01:10:08;;;;;;;60.05;30.35;;;;;;;-145.63;100.00;61273.97;4984318;28;20085;-59
2022/02/07 01:50:52;;;;;;;54.78;27.83;;;;;;;-145.63;100.00;61273.97;4983104;28;20139;-60
2022/02/07 01:53:35;;;;;;;53.42;28.02;;;;;;;-145.63;100.00;61273.97;4986924;28;20114;-60
2022/02/07 01:56:04;;;;;;;60.35;28.60;;;;;;;-145.63;100.00;61273.97;4983886;28;20049;-59
2022/02/07 01:58:30;;;;;;;60.03;29.25;;;;;;;-145.63;100.00;61273.97;4987596;28;20047;-59
2022/02/07 02:00:55;;;;;;;54.33;27.17;;;;;;;-145.63;100.00;61273.97;4987303;28;20030;-58
2022/02/07 02:03:21;;;;;;;59.42;28.80;;;;;;;-145.63;100.00;61273.97;4983086;28;20035;-58
2022/02/07 02:05:46;;;;;;;53.92;28.65;;;;;;;-145.63;100.00;61273.97;4981765;28;20077;-58
2022/02/07 02:08:15;;;;;;;55.53;28.75;;;;;;;-145.63;100.00;61273.97;4987485;28;20042;-59
2022/02/07 02:10:44;;;;;;;57.53;29.52;;;;;;;-145.63;100.00;61273.97;4985992;28;20026;-59
2022/02/07 02:13:19;;;;;;;58.30;27.33;;;;;;;-145.63;100.00;61273.97;4986405;28;20042;-59
2022/02/07 02:15:55;;;;;;;53.38;27.42;;;;;;;-145.63;100.00;61273.97;4985315;28;20208;-58
2022/02/07 02:47:33;;;;;;;57.40;26.73;;;;;;;-145.63;100.00;61273.97;4986789;28;20042;-59
2022/02/07 02:50:04;;;;;;;61.78;27.35;;;;;;;-145.63;100.00;61273.97;4998340;28;20046;-59
2022/02/07 02:52:29;;;;;;;60.03;28.27;;;;;;;-145.63;100.00;61273.97;4985975;28;20126;-59
2022/02/07 02:54:55;;;;;;;66.63;28.33;;;;;;;-145.63;100.00;61273.97;4985913;28;20031;-60
2022/02/07 02:57:20;;;;;;;57.47;27.52;;;;;;;-145.63;100.00;61273.97;4984973;28;20026;-58
2022/02/07 02:59:46;;;;;;;61.38;27.75;;;;;;;-145.63;100.00;61273.97;4986122;28;20077;-59
2022/02/07 03:02:11;;;;;;;50.83;24.73;;;;;;;-145.63;100.00;61273.97;4985204;28;20022;-59
2022/02/07 03:04:37;;;;;;;59.97;27.50;;;;;;;-145.63;100.00;61273.97;4986361;28;20022;-60
2022/02/07 03:07:03;;;;;;;56.80;26.85;;;;;;;-145.63;100.00;61273.97;4986112;28;20042;-60
2022/02/07 03:09:29;;;;;;;56.45;26.60;;;;;;;-145.63;100.00;61273.97;4986368;28;20035;-60
2022/02/07 03:11:55;;;;;;;59.78;26.33;;;;;;;-145.63;100.00;61273.97;4986486;28;20030;-60
2022/02/07 03:14:34;;;;;;;57.50;25.90;;;;;;;-145.63;100.00;61273.97;4986547;28;20034;-59
2022/02/07 03:16:59;;;;;;;58.05;26.70;;;;;;;-145.63;100.00;61273.97;4986459;28;20038;-59
2022/02/07 03:19:25;;;;;;;57.53;26.27;;;;;;;-145.63;100.00;61273.97;4986090;28;20101;-59
2022/02/07 03:21:50;;;;;;;53.25;25.77;;;;;;;-145.63;100.00;61273.97;4986084;28;20065;-59
2022/02/07 03:24:16;;;;;;;56.35;27.40;;;;;;;-145.63;100.00;61273.97;4984973;28;20031;-58
2022/02/07 03:26:43;;;;;;;61.50;27.42;;;;;;;-145.63;100.00;61273.97;4985921;28;20035;-59
2022/02/07 03:29:11;;;;;;;58.63;28.83;;;;;;;-145.63;100.00;61273.97;5017347;28;20346;-59
2022/02/07 03:31:36;;;;;;;67.32;28.00;;;;;;;-145.63;100.00;61273.97;4985863;28;20035;-60
2022/02/07 03:34:03;;;;;;;70.78;30.20;;;;;;;-145.63;100.00;61273.97;4981199;28;20039;-59
2022/02/07 03:36:31;;;;;;;63.40;29.08;;;;;;;-145.63;100.00;61273.97;4985866;28;20069;-59
2022/02/07 03:38:57;;;;;;;63.63;29.25;;;;;;;-145.63;100.00;61273.97;4985972;28;20099;-59
2022/02/07 03:41:23;;;;;;;62.38;28.90;;;;;;;-145.63;100.00;61273.97;4985979;28;20341;-59
2022/02/07 03:43:50;;;;;;;56.80;28.75;;;;;;;-145.63;100.00;61273.97;4985725;28;20062;-59
2022/02/07 03:46:16;;;;;;;60.38;27.83;;;;;;;-145.63;100.00;61273.97;5017122;28;20310;-59
2022/02/07 03:48:41;;;;;;;55.50;27.08;;;;;;;-145.63;100.00;61273.97;4985472;28;20038;-59
2022/02/07 03:51:07;;;;;;;58.20;27.55;;;;;;;-145.63;100.00;61273.97;4985487;28;20027;-60
2022/02/07 03:53:32;;;;;;;60.22;29.13;;;;;;;-145.63;100.00;61273.97;4985467;28;20034;-59
2022/02/07 03:55:58;;;;;;;57.58;25.63;;;;;;;-145.63;100.00;61273.97;4985264;28;20216;-60
2022/02/07 03:58:24;;;;;;;58.63;27.95;;;;;;;-145.63;100.00;61273.97;4985387;28;20200;-60
2022/02/07 04:00:52;;;;;;;60.67;28.20;;;;;;;-145.63;100.00;61273.97;4985224;28;20219;-59
2022/02/07 04:03:20;;;;;;;60.90;26.67;;;;;;;-145.63;100.00;61273.97;4985348;28;20205;-59
2022/02/07 04:08:13;;;;;;;50.83;24.60;;;;;;;-145.63;100.00;61273.97;4985074;28;20034;-59
2022/02/07 04:11:05;;;;;;;53.85;26.60;;;;;;;-145.63;100.00;61273.97;4983282;28;20106;-60
2022/02/07 04:13:29;;;;;;;53.55;26.88;;;;;;;-145.63;100.00;61273.97;4985165;28;20113;-59
2022/02/07 04:15:55;;;;;;;51.95;24.63;;;;;;;-145.63;100.00;61273.97;4985232;28;20038;-59
2022/02/07 04:18:22;;;;;;;51.22;25.60;;;;;;;-145.63;100.00;61273.97;4984825;28;20371;-59
2022/02/07 04:20:47;;;;;;;48.75;23.95;;;;;;;-145.63;100.00;61273.97;4984916;28;20255;-60
2022/02/07 04:23:13;;;;;;;45.22;23.52;;;;;;;-145.63;100.00;61273.97;4985158;28;20043;-60
2022/02/07 04:25:38;;;;;;;44.95;24.05;;;;;;;-145.63;100.00;61273.97;4985047;28;20019;-60
2022/02/07 04:28:04;;;;;;;48.70;23.48;;;;;;;-145.63;100.00;61273.97;4984924;28;20047;-58
2022/02/07 04:30:30;;;;;;;43.90;20.98;;;;;;;-145.63;100.00;61273.97;4984710;28;20034;-59
2022/02/07 04:32:56;;;;;;;38.45;19.83;;;;;;;-145.63;100.00;61273.97;4984861;28;20026;-59
2022/02/07 04:35:21;;;;;;;41.22;20.25;;;;;;;-145.63;100.00;61273.97;4984769;28;20073;-59
2022/02/07 04:37:47;;;;;;;43.30;19.88;;;;;;;-145.63;100.00;61273.97;4984640;28;20054;-60
2022/02/07 04:40:13;;;;;;;34.35;19.33;;;;;;;-145.63;100.00;61273.97;4984743;28;20085;-59
2022/02/07 04:42:38;;;;;;;37.88;20.20;;;;;;;-145.63;100.00;61273.97;4983039;28;20035;-60
2022/02/07 04:53:14;;;;;;;37.33;18.42;;;;;;;-145.63;100.00;61273.97;4984131;28;20331;-59
2022/02/07 04:55:47;;;;;;;32.33;17.75;;;;;;;-145.63;100.00;61273.97;4984275;28;20030;-59
2022/02/07 05:03:25;;;;;;;36.15;18.77;;;;;;;-145.63;100.00;61273.97;4983971;28;20038;-59
2022/02/07 05:13:52;;;;;;;30.70;16.02;;;;;;;-145.63;100.00;61273.97;4984304;28;20026;-59
2022/02/07 05:16:25;;;;;;;36.13;18.58;;;;;;;-145.63;100.00;61273.97;4984040;28;20039;-60
2022/02/07 05:18:57;;;;;;;37.83;19.85;;;;;;;-145.63;100.00;61273.97;4982666;28;20023;-60
2022/02/07 05:21:24;;;;;;;33.22;17.98;;;;;;;-145.63;100.00;61273.97;4983400;28;20031;-59
2022/02/07 05:23:49;;;;;;;36.38;19.02;;;;;;;-145.63;100.00;61273.97;4983576;28;20050;-60
2022/02/07 05:26:16;;;;;;;36.35;19.27;;;;;;;-145.63;100.00;61273.97;4983602;28;20046;-59
2022/02/07 05:28:41;;;;;;;35.60;19.05;;;;;;;-145.63;100.00;61273.97;4983891;28;20037;-58
2022/02/07 05:31:08;;;;;;;30.60;17.35;;;;;;;-145.63;100.00;61273.97;4983436;28;20026;-60
2022/02/07 05:33:34;;;;;;;35.53;18.63;;;;;;;-145.63;100.00;61273.97;4975525;28;20050;-60
2022/02/07 05:36:00;;;;;;;34.60;18.77;;;;;;;-145.63;100.00;61273.97;4978350;28;20041;-59
2022/02/07 05:38:25;;;;;;;36.28;17.98;;;;;;;-145.63;100.00;61273.97;4984052;28;20035;-59
2022/02/07 05:43:18;;;;;;;39.55;18.35;;;;;;;-145.63;100.00;61273.97;4971749;28;20053;-60
2022/02/07 05:45:43;;;;;;;33.83;18.08;;;;;;;-145.63;100.00;61273.97;4983758;28;20098;-60
2022/02/07 05:48:09;;;;;;;36.47;18.77;;;;;;;-145.63;100.00;61273.97;4983674;28;20034;-61
2022/02/07 05:50:34;;;;;;;33.00;18.58;;;;;;;-145.63;100.00;61273.97;4983925;28;20041;-59
2022/02/07 05:53:00;;;;;;;45.20;19.10;;;;;;;-145.63;100.00;61273.97;4992744;28;20108;-60
2022/02/07 05:55:27;;;;;;;37.58;18.92;;;;;;;-145.63;100.00;61273.97;4984802;28;20053;-59
2022/02/07 05:57:52;;;;;;;34.40;18.23;;;;;;;-145.63;100.00;61273.97;4983722;28;20031;-59
2022/02/07 06:00:18;;;;;;;30.00;18.02;;;;;;;-145.63;100.00;61273.97;4983413;28;20078;-59
2022/02/07 06:02:44;;;;;;;30.60;18.05;;;;;;;-145.63;100.00;61273.97;4983719;28;20035;-59
2022/02/07 06:05:10;;;;;;;35.15;19.73;;;;;;;-145.63;100.00;61273.97;4983459;28;20030;-58
2022/02/07 06:07:35;;;;;;;32.13;18.83;;;;;;;-145.63;100.00;61273.97;4983398;28;20037;-61
2022/02/07 06:10:01;;;;;;;33.42;18.55;;;;;;;-145.63;100.00;61273.97;4983572;28;20023;-60
2022/02/07 06:12:32;;;;;;;34.95;18.40;;;;;;;-145.63;100.00;61273.97;4983634;28;20019;-60
2022/02/07 06:14:58;;;;;;;37.92;18.33;;;;;;;-145.63;100.00;61273.97;4983458;28;20089;-60
2022/02/07 06:17:24;;;;;;;35.85;19.08;;;;;;;-145.63;100.00;61273.97;4983515;28;20054;-60
2022/02/07 06:19:51;;;;;;;35.65;19.15;;;;;;;-145.63;100.00;61273.97;4983219;28;20346;-60
2022/02/07 06:22:17;;;;;;;37.65;18.92;;;;;;;-145.63;100.00;61273.97;4983463;28;20043;-60
2022/02/07 06:24:42;;;;;;;36.25;19.75;;;;;;;-145.63;100.00;61273.97;4983382;28;20259;-60
2022/02/07 06:27:08;;;;;;;29.75;16.63;;;;;;;-145.63;100.00;61273.97;4983216;28;20035;-60
2022/02/07 06:29:34;;;;;;;32.50;18.90;;;;;;;-145.63;100.00;61273.97;4983333;28;20042;-60
2022/02/07 06:31:59;;;;;;;38.40;19.58;;;;;;;-145.63;100.00;61273.97;4983049;28;20026;-59
2022/02/07 06:34:25;;;;;;;36.17;19.45;;;;;;;-145.63;100.00;61273.97;5008146;28;20058;-59
2022/02/07 06:36:50;;;;;;;32.78;18.55;;;;;;;-145.63;100.00;61273.97;4987176;28;22178;-59
2022/02/07 06:39:15;;;;;;;28.75;16.70;;;;;;;-145.63;100.00;61273.97;4987248;28;20026;-59
2022/02/07 06:41:42;;;;;;;31.98;17.80;;;;;;;-145.63;100.00;61273.97;4987146;28;20456;-59
2022/02/07 06:44:09;;;;;;;33.03;16.60;;;;;;;-145.63;100.00;61273.97;4986643;28;20030;-60
2022/02/07 06:46:34;;;;;;;35.75;17.23;;;;;;;-145.63;100.00;61273.97;4986766;28;20157;-59
2022/02/07 06:49:00;;;;;;;32.67;18.52;;;;;;;-145.63;100.00;61273.97;4986718;28;20030;-60
2022/02/07 06:51:25;;;;;;;30.70;17.38;;;;;;;-145.63;100.00;61273.97;4986760;28;20030;-59
2022/02/07 06:53:51;;;;;;;28.40;17.00;;;;;;;-145.63;100.00;61273.97;4986620;28;20085;-60
2022/02/07 06:56:17;;;;;;;34.58;17.92;;;;;;;-145.63;100.00;61273.97;4986214;28;20042;-60
2022/02/07 06:58:42;;;;;;;31.00;16.85;;;;;;;-145.63;100.00;61273.97;4986658;28;20027;-60
2022/02/07 07:01:08;;;;;;;31.63;17.02;;;;;;;-145.63;100.00;61273.97;4986491;28;20290;-59
2022/02/07 07:03:35;;;;;;;30.20;17.20;;;;;;;-145.63;100.00;61273.97;4986490;28;20026;-61
2022/02/07 07:06:00;;;;;;;28.02;16.20;;;;;;;-145.63;100.00;61273.97;4986336;28;20105;-60
2022/02/07 07:08:26;;;;;;;29.10;16.40;;;;;;;-145.63;100.00;61273.97;4984495;28;20034;-60
2022/02/07 07:10:55;;;;;;;27.25;15.90;;;;;;;-145.63;100.00;61273.97;4986000;28;20037;-60
2022/02/07 07:13:26;;;;;;;28.17;15.80;;;;;;;-145.63;100.00;61273.97;4986113;28;20042;-59
2022/02/07 07:16:13;;;;;;;30.30;16.80;;;;;;;-145.63;100.00;61273.97;4985832;28;20058;-59
2022/02/07 07:18:37;;;;;;;30.00;17.02;;;;;;;-145.63;100.00;61273.97;4985796;28;20047;-59
2022/02/07 07:21:02;;;;;;;23.15;15.23;;;;;;;-145.63;100.00;61273.97;5017311;28;20025;-60
2022/02/07 07:23:28;;;;;;;27.90;15.68;;;;;;;-145.63;100.00;61273.97;4986098;28;20105;-61
2022/02/07 07:25:53;;;;;;;30.92;15.85;;;;;;;-145.63;100.00;61273.97;4985868;28;20031;-59
2022/02/07 07:28:21;;;;;;;28.98;14.77;;;;;;;-145.63;100.00;61273.97;4985923;28;20027;-59
2022/02/07 07:30:53;;;;;;;29.70;16.02;;;;;;;-145.63;100.00;61273.97;4984413;28;20299;-59
2022/02/07 07:33:22;;;;;;;30.10;17.15;;;;;;;-145.63;100.00;61273.97;4981895;28;20035;-60
2022/02/07 07:35:47;;;;;;;32.17;16.40;;;;;;;-145.63;100.00;61273.97;4985788;28;20031;-60
2022/02/07 07:38:13;;;;;;;27.52;17.45;;;;;;;-145.63;100.00;61273.97;4985959;28;20046;-59
2022/02/07 07:40:40;;;;;;;26.83;15.80;;;;;;;-145.63;100.00;61273.97;4985668;28;20031;-59
2022/02/07 07:43:07;;;;;;;24.77;15.95;;;;;;;-145.63;100.00;61273.97;4985577;28;20042;-60
2022/02/07 07:45:41;;;;;;;24.20;15.70;;;;;;;-145.63;100.00;61273.97;4984439;28;20094;-59
2022/02/07 07:48:11;;;;;;;26.00;15.95;;;;;;;-145.63;100.00;61273.97;4985769;28;20118;-60
2022/02/07 08:03:42;;;;;;;28.85;16.58;;;;;;;-145.63;100.00;61273.97;4985568;28;20034;-60
2022/02/07 08:06:16;;;;;;;34.72;18.02;;;;;;;-145.63;100.00;61273.97;4985482;28;20043;-59
2022/02/07 08:09:16;;;;;;;28.52;17.15;;;;;;;-145.63;100.00;61273.97;4985389;28;20223;-58
2022/02/07 08:11:39;;;;;;;34.08;18.00;;;;;;;-145.63;100.00;61273.97;4985186;28;20050;-59
2022/02/07 08:14:05;;;;;;;30.13;18.05;;;;;;;-145.63;100.00;61273.97;4985141;28;20031;-61
2022/02/07 08:16:31;;;;;;;27.42;16.40;;;;;;;-145.63;100.00;61273.97;5016572;28;20034;-59
2022/02/07 08:19:06;;;;;;;28.60;16.80;;;;;;;-145.63;100.00;61273.97;4985052;28;20031;-60
2022/02/07 08:21:32;;;;;;;30.45;17.42;;;;;;;-145.63;100.00;61273.97;4984859;28;20043;-60
2022/02/07 08:23:57;;;;;;;27.20;16.88;;;;;;;-145.63;100.00;61273.97;4984400;28;20361;-61
2022/02/07 08:26:23;;;;;;;31.00;18.30;;;;;;;-145.63;100.00;61273.97;4980519;28;20027;-60
2022/02/07 08:28:48;;;;;;;27.15;16.33;;;;;;;-145.63;100.00;61273.97;4979509;28;20101;-60
2022/02/07 08:31:17;;;;;;;25.42;17.30;;;;;;;-145.63;100.00;61273.97;4983505;28;20026;-60
2022/02/07 08:33:42;;;;;;;39.55;24.02;;;;;;;-145.63;100.00;61273.97;4984402;28;20018;-60
2022/02/07 08:36:08;;;;;;;32.45;19.33;;;;;;;-145.63;100.00;61273.97;4984682;28;20215;-60
2022/02/07 08:38:34;;;;;;;28.88;17.60;;;;;;;-145.63;100.00;61273.97;4984893;28;20038;-60
2022/02/07 08:40:59;;;;;;;29.10;17.85;;;;;;;-145.63;100.00;61273.97;4984637;28;20276;-59
2022/02/07 08:43:25;;;;;;;31.25;18.85;;;;;;;-145.63;100.00;61273.97;4983712;28;20038;-60
2022/02/07 08:45:50;;;;;;;32.53;19.83;;;;;;;-145.63;100.00;61273.97;4983451;28;20034;-60
2022/02/07 08:48:16;;;;;;;32.42;19.48;;;;;;;-145.63;100.00;61273.97;4984349;28;20200;-59
2022/02/07 08:50:44;;;;;;;33.20;20.13;;;;;;;-145.63;100.00;61273.97;4983338;28;20036;-59
2022/02/07 08:53:10;;;;;;;30.48;19.35;;;;;;;-145.63;100.00;61273.97;4984536;28;20026;-60
2022/02/07 08:55:39;;;;;;;29.48;19.48;;;;;;;-145.63;100.00;61273.97;4984419;28;20316;-59
2022/02/07 08:58:09;;;;;;;29.67;19.08;;;;;;;-145.63;100.00;61273.97;4984409;28;20244;-60
2022/02/07 09:03:26;;;;;;;30.85;18.83;;;;;;;-145.63;100.00;61273.97;4984215;28;20084;-59
2022/02/07 09:11:11;;;;;;;29.77;17.85;;;;;;;-145.63;100.00;61273.97;4984005;28;20034;-60
2022/02/07 09:13:40;;;;;;;29.17;17.60;;;;;;;-145.63;100.00;61273.97;4982336;28;20425;-61
2022/02/07 09:18:44;;;;;;;30.20;19.05;;;;;;;-145.63;100.00;61273.97;4983934;28;20038;-60
2022/02/07 09:21:11;;;;;;;26.60;17.25;;;;;;;-145.63;100.00;61273.97;4983821;28;20088;-60
2022/02/07 09:23:44;;;;;;;27.67;17.92;;;;;;;-145.63;100.00;61273.97;4983787;28;20050;-60
2022/02/07 09:26:10;;;;;;;28.20;18.77;;;;;;;-145.63;100.00;61273.97;4998702;28;20035;-61
2022/02/07 09:28:36;;;;;;;28.20;16.27;;;;;;;-145.63;100.00;61273.97;4983357;28;20026;-59
2022/02/07 09:31:02;;;;;;;27.85;16.33;;;;;;;-145.63;100.00;61273.97;4983714;28;20034;-60
2022/02/07 09:33:28;;;;;;;33.88;19.70;;;;;;;-145.63;100.00;61273.97;4974859;28;20027;-60
2022/02/07 09:35:54;;;;;;;26.50;16.88;;;;;;;-145.63;100.00;61273.97;4974590;28;20018;-59
2022/02/07 09:38:21;;;;;;;25.38;16.42;;;;;;;-145.63;100.00;61273.97;4986486;28;20066;-60
2022/02/07 09:40:51;;;;;;;25.45;16.67;;;;;;;-145.63;100.00;61273.97;4983418;28;20063;-61
2022/02/07 09:43:18;;;;;;;25.83;17.02;;;;;;;-145.63;100.00;61273.97;4983336;28;20042;-60
2022/02/07 09:45:45;;;;;;;24.58;16.88;;;;;;;-145.63;100.00;61273.97;4983708;28;20334;-61
2022/02/07 09:48:13;;;;;;;24.90;16.67;;;;;;;-145.63;100.00;61273.97;4983161;28;20342;-61
2022/02/07 09:50:39;;;;;;;24.58;16.77;;;;;;;-145.63;100.00;61273.97;4982498;28;20100;-61
2022/02/07 09:53:06;;;;;;;26.92;16.30;;;;;;;-145.63;100.00;61273.97;4982790;28;20031;-61
2022/02/07 09:55:33;;;;;;;27.58;16.00;;;;;;;-145.63;100.00;61273.97;4983414;28;20398;-61
2022/02/07 09:57:58;;;;;;;27.08;16.60;;;;;;;-145.63;100.00;61273.97;4983286;28;20216;-62
2022/02/07 10:00:35;;;;;;;23.48;14.82;;;;;;;-145.63;100.00;61273.97;4983351;28;20030;-61
2022/02/07 10:03:11;;;;;;;25.10;16.75;;;;;;;-145.63;100.00;61273.97;4997875;28;20062;-61
2022/02/07 10:05:53;;;;;;;24.42;16.50;;;;;;;-145.63;100.00;61273.97;4990422;28;20050;-61
2022/02/07 10:16:13;;;;;;;24.33;16.27;;;;;;;-145.63;100.00;61273.97;4987204;28;20030;-60
2022/02/07 10:18:54;;;;;;;23.92;16.17;;;;;;;-145.63;100.00;61273.97;4987425;28;20263;-61
2022/02/07 10:40:29;;;;;;;21.50;14.05;;;;;;;-145.63;100.00;61273.97;4986814;28;20037;-60
2022/02/07 10:46:00;;;;;;;26.75;14.70;;;;;;;-145.63;100.00;61273.97;4986395;28;20042;-61
2022/02/07 10:48:32;;;;;;;21.83;14.60;;;;;;;-145.63;100.00;61273.97;4986733;28;20031;-60
2022/02/07 10:51:25;;;;;;;20.80;14.27;;;;;;;-145.63;100.00;61273.97;4986544;28;20027;-61
2022/02/07 10:53:54;;;;;;;21.42;13.85;;;;;;;-145.63;100.00;61273.97;4986246;28;20019;-60
2022/02/07 10:56:43;;;;;;;24.50;14.07;;;;;;;-145.63;100.00;61273.97;4986588;28;20061;-61
2022/02/07 10:59:13;;;;;;;24.63;14.32;;;;;;;-145.63;100.00;61273.97;4986575;28;20037;-61
2022/02/07 11:04:28;;;;;;;22.77;14.43;;;;;;;-145.63;100.00;61273.97;4986397;28;20058;-59
2022/02/07 11:06:59;;;;;;;19.52;13.20;;;;;;;-145.63;100.00;61273.97;4986205;28;20038;-61
2022/02/07 11:09:39;;;;;;;21.65;14.32;;;;;;;-145.63;100.00;61273.97;4981531;28;20045;-61
2022/02/07 11:25:53;;;;;;;19.83;12.95;;;;;;;-145.63;100.00;61273.97;4986114;28;20197;-60
2022/02/07 11:28:24;;;;;;;19.50;13.30;;;;;;;-145.63;100.00;61273.97;4986111;28;20097;-60
2022/02/07 11:30:57;;;;;;;21.13;12.70;;;;;;;-145.63;100.00;61273.97;4986312;28;20041;-60
2022/02/07 11:33:32;;;;;;;22.02;13.75;;;;;;;-145.63;100.00;61273.97;4979497;28;20091;-61
2022/02/07 11:35:57;;;;;;;24.50;13.40;;;;;;;-145.63;100.00;61273.97;4985307;28;20034;-60
2022/02/07 11:38:23;;;;;;;20.75;13.02;;;;;;;-145.63;100.00;61273.97;4985797;28;20077;-61
2022/02/07 11:41:00;;;;;;;20.25;13.05;;;;;;;-145.63;100.00;61273.97;4985635;28;20181;-61
2022/02/07 11:43:31;;;;;;;19.98;13.20;;;;;;;-145.63;100.00;61273.97;4985953;28;20038;-60
2022/02/07 11:46:08;;;;;;;21.95;13.70;;;;;;;-145.63;100.00;61273.97;4981643;28;20035;-60
2022/02/07 11:48:51;;;;;;;22.00;13.35;;;;;;;-145.63;100.00;61273.97;4983486;28;20039;-61
2022/02/07 11:51:31;;;;;;;23.95;13.73;;;;;;;-145.63;100.00;61273.97;4985742;28;20027;-60
2022/02/07 11:54:02;;;;;;;20.98;13.52;;;;;;;-145.63;100.00;61273.97;4985633;28;20393;-61
2022/02/07 11:56:37;;;;;;;22.98;13.98;;;;;;;-145.63;100.00;61273.97;4985709;28;20054;-60
2022/02/07 11:59:24;;;;;;;22.98;15.10;;;;;;;-145.63;100.00;61273.97;4985444;28;20371;-61
2022/02/07 12:01:57;;;;;;;24.05;14.13;;;;;;;-145.63;100.00;61273.97;4980857;28;20319;-61
2022/02/07 12:04:39;;;;;;;22.52;15.30;;;;;;;-145.63;100.00;61273.97;4978729;28;20219;-61
2022/02/07 12:07:15;;;;;;;28.50;14.75;;;;;;;-145.63;100.00;61273.97;5016434;28;20051;-61
2022/02/07 12:10:00;;;;;;;20.40;13.95;;;;;;;-145.63;100.00;61273.97;4985070;28;20219;-60
2022/02/07 12:12:48;;;;;;;22.40;13.35;;;;;;;-145.63;100.00;61273.97;4985037;28;20030;-61
2022/02/07 12:15:37;;;;;;;22.40;14.45;;;;;;;-145.63;100.00;61273.97;4984713;28;20042;-61
2022/02/07 12:18:12;;;;;;;24.25;13.73;;;;;;;-145.63;100.00;61273.97;4984599;28;20042;-61
2022/02/07 12:20:38;;;;;;;22.17;13.38;;;;;;;-145.63;100.00;61273.97;4980036;28;20053;-62
2022/02/07 12:23:10;;;;;;;21.27;13.60;;;;;;;-145.63;100.00;61273.97;4984880;28;20030;-62
2022/02/07 12:25:42;;;;;;;18.95;12.88;;;;;;;-145.63;100.00;61273.97;4984665;28;20068;-60
2022/02/07 12:28:15;;;;;;;19.38;13.75;;;;;;;-145.63;100.00;61273.97;4971470;28;20110;-61
2022/02/07 12:33:26;;;;;;;17.65;13.27;;;;;;;-145.63;100.00;61273.97;4983034;28;20386;-61
2022/02/07 12:35:58;;;;;;;22.85;14.45;;;;;;;-145.63;100.00;61273.97;4984888;28;20231;-61
2022/02/07 12:38:28;;;;;;;20.27;14.30;;;;;;;-145.63;100.00;61273.97;4984291;28;20098;-62
2022/02/07 12:40:55;;;;;;;22.13;14.50;;;;;;;-145.63;100.00;61273.97;4984205;28;20039;-61
2022/02/07 12:43:22;;;;;;;22.27;13.90;;;;;;;-145.63;100.00;61273.97;4984480;28;20030;-62
2022/02/07 12:45:48;;;;;;;22.15;14.98;;;;;;;-145.63;100.00;61273.97;4984466;28;20045;-61
2022/02/07 12:48:17;;;;;;;22.10;14.55;;;;;;;-145.63;100.00;61273.97;4984191;28;20043;-61
2022/02/07 12:50:49;;;;;;;22.83;14.45;;;;;;;-145.63;100.00;61273.97;4984322;28;20034;-62
2022/02/07 12:53:26;;;;;;;22.67;14.50;;;;;;;-145.63;100.00;61273.97;4984142;28;20038;-61
2022/02/07 12:56:00;;;;;;;23.38;13.75;;;;;;;-145.63;100.00;61273.97;4982636;28;20030;-62
2022/02/07 12:58:32;;;;;;;21.75;14.50;;;;;;;-145.63;100.00;61273.97;4983747;28;20082;-61
2022/02/07 13:00:58;;;;;;;22.00;14.13;;;;;;;-145.63;100.00;61273.97;4983580;28;20090;-62
2022/02/07 13:03:23;;;;;;;21.33;13.98;;;;;;;-145.63;100.00;61273.97;4983451;28;20042;-62
2022/02/07 13:05:49;;;;;;;23.92;13.43;;;;;;;-145.63;100.00;61273.97;4983499;28;20034;-61
2022/02/07 13:08:18;;;;;;;24.27;13.60;;;;;;;-145.63;100.00;61273.97;4983748;28;20050;-60
2022/02/07 13:10:55;;;;;;;23.17;13.93;;;;;;;-145.63;100.00;61273.97;5015196;28;20206;-61
2022/02/07 13:13:30;;;;;;;20.17;12.45;;;;;;;-145.63;100.00;61273.97;4982241;28;20054;-61
2022/02/07 13:15:57;;;;;;;23.83;12.63;;;;;;;-145.63;100.00;61273.97;4994909;28;20280;-61
2022/02/07 13:18:23;;;;;;;22.35;14.02;;;;;;;-145.63;100.00;61273.97;4982204;28;20037;-61
2022/02/07 13:20:51;;;;;;;22.05;13.43;;;;;;;-145.63;100.00;61273.97;4981991;28;20026;-62
2022/02/07 13:23:19;;;;;;;21.08;13.45;;;;;;;-145.63;100.00;61273.97;4982547;28;20049;-61
2022/02/07 13:25:48;;;;;;;20.92;13.98;;;;;;;-145.63;100.00;61273.97;4977490;28;20328;-61
2022/02/07 13:28:42;;;;;;;22.63;14.82;;;;;;;-145.63;100.00;61273.97;5014140;28;20034;-61
2022/02/07 13:31:09;;;;;;;32.70;20.23;;;;;;;-145.63;100.00;61273.97;4980748;28;20051;-61
2022/02/07 13:33:50;;;;;;;23.80;15.13;;;;;;;-145.63;100.00;61273.97;4983626;28;20034;-61
2022/02/07 13:36:42;;;;;;;24.85;15.80;;;;;;;-145.63;100.00;61273.97;4995791;28;20259;-60
2022/02/07 13:39:07;;;;;;;;;;;;;;;-145.63;100.00;61273.97;4976200;28;20105;-61
2022/02/07 13:41:33;;;;;;;23.70;14.52;;;;;;;-145.63;100.00;61273.97;4979370;28;19910;-60
2022/02/07 13:44:00;;;;;;;25.50;17.25;;;;;;;-145.63;100.00;61273.97;4974099;28;20076;-62
2022/02/07 13:46:33;;;;;;;28.50;16.95;;;;;;;-145.63;100.00;61273.97;4981077;28;20031;-61
2022/02/07 13:49:00;;;;;;;24.55;16.83;;;;;;;-145.63;100.00;61273.97;5014708;28;20219;-62
2022/02/07 13:51:28;;;;;;;26.25;15.63;;;;;;;-145.63;100.00;61273.97;4983135;28;20023;-62